Dalhart, Texas
Current Conditions -  °F | °C
As of 9:53 AM on Monday 22 Dec 2014 (Local Time) from KDHT Reporting Station
Overcast Overcast  
Wind Chill: 41°   Ceiling: 9500
Heat Index: 48°   Visibility: 10mi
Dew Point: 26°   Wind: 20mph
Humidity: 42%   Direction: 350°N
Pressure: 29.75"   Gusts: 28mph
Location:  36.06°N, 102.52°W
Report Text: KDHT 221553Z AUTO 35017G24KT 10SM OVC095 09/M03 A2975 RMK AO2 SLP064 T00891033
Loading
Personal Weather Stations






























Interactive Weather Map New forecast layout! Learn more

10-Day Weather Forecast

Advertisements
Track Severe Weather on mobile